sensor_id;sensor_type;location;lat;lon;timestamp;pressure;altitude;pressure_sealevel;temperature;humidity
78149;BME280;67396;42.664;23.382;2024-01-10T00:02:19;96020.78;;;-5.32;72.00
78149;BME280;67396;42.664;23.382;2024-01-10T00:04:45;96021.09;;;-5.18;72.10
78149;BME280;67396;42.664;23.382;2024-01-10T00:07:10;96019.28;;;-5.13;72.17
78149;BME280;67396;42.664;23.382;2024-01-10T00:09:36;96024.56;;;-5.28;73.07
78149;BME280;67396;42.664;23.382;2024-01-10T00:12:01;96025.69;;;-5.14;73.05
78149;BME280;67396;42.664;23.382;2024-01-10T00:14:27;96021.47;;;-5.00;72.79
78149;BME280;67396;42.664;23.382;2024-01-10T00:16:52;96026.25;;;-5.07;73.54
78149;BME280;67396;42.664;23.382;2024-01-10T00:19:18;96026.38;;;-4.86;73.35
78149;BME280;67396;42.664;23.382;2024-01-10T00:21:43;96037.16;;;-4.66;71.69
78149;BME280;67396;42.664;23.382;2024-01-10T00:24:09;96020.63;;;-4.43;71.06
78149;BME280;67396;42.664;23.382;2024-01-10T00:26:34;96033.97;;;-4.53;71.07
78149;BME280;67396;42.664;23.382;2024-01-10T00:28:59;96032.63;;;-4.56;70.95
78149;BME280;67396;42.664;23.382;2024-01-10T00:31:25;96033.97;;;-4.48;70.55
78149;BME280;67396;42.664;23.382;2024-01-10T00:33:51;96038.81;;;-4.45;70.22
78149;BME280;67396;42.664;23.382;2024-01-10T00:36:16;96041.75;;;-4.46;71.17
78149;BME280;67396;42.664;23.382;2024-01-10T00:38:41;96036.47;;;-4.31;70.17
78149;BME280;67396;42.664;23.382;2024-01-10T00:41:07;96040.22;;;-4.22;69.92
78149;BME280;67396;42.664;23.382;2024-01-10T00:43:33;96033.81;;;-4.11;69.22
78149;BME280;67396;42.664;23.382;2024-01-10T00:45:58;96042.09;;;-4.28;69.06
78149;BME280;67396;42.664;23.382;2024-01-10T00:48:24;96036.94;;;-4.39;70.30
78149;BME280;67396;42.664;23.382;2024-01-10T00:50:49;96038.75;;;-4.65;71.18
78149;BME280;67396;42.664;23.382;2024-01-10T00:53:15;96038.75;;;-4.65;71.30
78149;BME280;67396;42.664;23.382;2024-01-10T00:55:40;96036.00;;;-4.85;71.93
78149;BME280;67396;42.664;23.382;2024-01-10T00:58:06;96045.09;;;-4.86;71.94
78149;BME280;67396;42.664;23.382;2024-01-10T01:00:32;96051.31;;;-4.71;71.51
78149;BME280;67396;42.664;23.382;2024-01-10T01:02:57;96035.22;;;-4.81;71.66
78149;BME280;67396;42.664;23.382;2024-01-10T01:05:23;96037.03;;;-4.97;71.61
78149;BME280;67396;42.664;23.382;2024-01-10T01:07:48;96031.59;;;-5.07;72.27
78149;BME280;67396;42.664;23.382;2024-01-10T01:10:13;96039.56;;;-5.22;72.82
78149;BME280;67396;42.664;23.382;2024-01-10T01:12:39;96040.59;;;-5.28;73.53
78149;BME280;67396;42.664;23.382;2024-01-10T01:15:05;96030.47;;;-5.21;72.69
78149;BME280;67396;42.664;23.382;2024-01-10T01:17:31;96029.34;;;-5.30;72.43
78149;BME280;67396;42.664;23.382;2024-01-10T01:19:56;96025.31;;;-5.33;72.64
78149;BME280;67396;42.664;23.382;2024-01-10T01:22:22;96027.19;;;-5.33;73.20
78149;BME280;67396;42.664;23.382;2024-01-10T01:24:47;96028.22;;;-5.39;71.90
78149;BME280;67396;42.664;23.382;2024-01-10T01:27:13;96025.00;;;-5.36;71.73
78149;BME280;67396;42.664;23.382;2024-01-10T01:29:38;96018.06;;;-5.37;73.04
78149;BME280;67396;42.664;23.382;2024-01-10T01:32:04;96025.00;;;-5.41;72.59
78149;BME280;67396;42.664;23.382;2024-01-10T01:34:29;96023.09;;;-5.46;73.08
78149;BME280;67396;42.664;23.382;2024-01-10T01:36:55;96016.41;;;-5.48;73.16
78149;BME280;67396;42.664;23.382;2024-01-10T01:39:20;96019.31;;;-5.55;73.87
78149;BME280;67396;42.664;23.382;2024-01-10T01:41:46;96020.63;;;-5.57;74.10
78149;BME280;67396;42.664;23.382;2024-01-10T01:44:11;96019.56;;;-5.56;74.16
78149;BME280;67396;42.664;23.382;2024-01-10T01:46:37;96020.88;;;-5.54;74.79
78149;BME280;67396;42.664;23.382;2024-01-10T01:49:05;96016.06;;;-5.57;75.08
78149;BME280;67396;42.664;23.382;2024-01-10T01:51:33;96023.03;;;-5.56;75.73
78149;BME280;67396;42.664;23.382;2024-01-10T01:54:00;96012.84;;;-5.59;75.41
78149;BME280;67396;42.664;23.382;2024-01-10T01:56:25;96012.53;;;-5.62;75.41
78149;BME280;67396;42.664;23.382;2024-01-10T01:58:51;96000.03;;;-5.57;75.29
78149;BME280;67396;42.664;23.382;2024-01-10T02:01:18;95996.78;;;-5.59;74.63
78149;BME280;67396;42.664;23.382;2024-01-10T02:03:47;95997.44;;;-5.42;74.42
78149;BME280;67396;42.664;23.382;2024-01-10T02:06:12;95997.44;;;-5.42;74.42
78149;BME280;67396;42.664;23.382;2024-01-10T02:08:38;95998.75;;;-5.44;74.15
78149;BME280;67396;42.664;23.382;2024-01-10T02:11:04;95998.75;;;-5.44;74.50
78149;BME280;67396;42.664;23.382;2024-01-10T02:13:31;95987.53;;;-5.46;75.64
78149;BME280;67396;42.664;23.382;2024-01-10T02:16:00;95992.34;;;-5.43;73.61
78149;BME280;67396;42.664;23.382;2024-01-10T02:18:26;95993.38;;;-5.54;73.19
78149;BME280;67396;42.664;23.382;2024-01-10T02:20:51;95996.28;;;-5.56;72.97
78149;BME280;67396;42.664;23.382;2024-01-10T02:23:17;95995.44;;;-5.61;73.34
78149;BME280;67396;42.664;23.382;2024-01-10T02:25:42;96001.81;;;-5.68;74.90
78149;BME280;67396;42.664;23.382;2024-01-10T02:28:08;95990.88;;;-5.61;75.34
78149;BME280;67396;42.664;23.382;2024-01-10T02:30:37;96000.84;;;-5.56;75.83
78149;BME280;67396;42.664;23.382;2024-01-10T02:33:03;95996.53;;;-5.57;75.97
78149;BME280;67396;42.664;23.382;2024-01-10T02:35:28;95998.72;;;-5.54;75.96
78149;BME280;67396;42.664;23.382;2024-01-10T02:37:56;96001.88;;;-5.57;76.04
78149;BME280;67396;42.664;23.382;2024-01-10T02:40:21;95991.13;;;-5.68;75.18
78149;BME280;67396;42.664;23.382;2024-01-10T02:42:47;95997.25;;;-5.72;74.82
78149;BME280;67396;42.664;23.382;2024-01-10T02:45:12;95990.00;;;-5.72;75.25
78149;BME280;67396;42.664;23.382;2024-01-10T02:47:38;96000.19;;;-5.74;75.38
78149;BME280;67396;42.664;23.382;2024-01-10T02:50:23;95999.06;;;-5.78;74.91
78149;BME280;67396;42.664;23.382;2024-01-10T02:52:48;96002.28;;;-5.81;75.37
78149;BME280;67396;42.664;23.382;2024-01-10T02:55:14;96001.78;;;-5.73;74.28
78149;BME280;67396;42.664;23.382;2024-01-10T02:57:39;96001.78;;;-5.73;74.73
78149;BME280;67396;42.664;23.382;2024-01-10T03:00:05;95993.78;;;-5.68;74.41
78149;BME280;67396;42.664;23.382;2024-01-10T03:02:31;96002.38;;;-5.65;74.50
78149;BME280;67396;42.664;23.382;2024-01-10T03:04:56;96005.31;;;-5.67;74.53
78149;BME280;67396;42.664;23.382;2024-01-10T03:07:22;95992.19;;;-5.69;75.08
78149;BME280;67396;42.664;23.382;2024-01-10T03:09:50;95995.16;;;-5.65;74.91
78149;BME280;67396;42.664;23.382;2024-01-10T03:12:15;95997.94;;;-5.50;75.77
78149;BME280;67396;42.664;23.382;2024-01-10T03:14:41;95995.00;;;-5.43;75.92
78149;BME280;67396;42.664;23.382;2024-01-10T03:17:07;95995.31;;;-5.40;74.80
78149;BME280;67396;42.664;23.382;2024-01-10T03:19:32;95997.75;;;-5.38;74.76
78149;BME280;67396;42.664;23.382;2024-01-10T03:21:58;95998.53;;;-5.38;75.17
78149;BME280;67396;42.664;23.382;2024-01-10T03:24:23;95998.81;;;-5.34;75.79
78149;BME280;67396;42.664;23.382;2024-01-10T03:26:51;96010.63;;;-5.30;76.01
78149;BME280;67396;42.664;23.382;2024-01-10T03:29:17;96014.00;;;-4.98;73.73
78149;BME280;67396;42.664;23.382;2024-01-10T03:31:42;96007.63;;;-4.81;73.39
78149;BME280;67396;42.664;23.382;2024-01-10T03:34:08;96006.09;;;-4.57;71.99
78149;BME280;67396;42.664;23.382;2024-01-10T03:36:33;96006.16;;;-4.42;71.53
78149;BME280;67396;42.664;23.382;2024-01-10T03:38:59;96001.63;;;-4.31;71.02
78149;BME280;67396;42.664;23.382;2024-01-10T03:41:24;95997.09;;;-4.15;70.46
78149;BME280;67396;42.664;23.382;2024-01-10T03:43:50;95998.16;;;-4.11;70.24
78149;BME280;67396;42.664;23.382;2024-01-10T03:46:15;95998.97;;;-4.16;69.96
78149;BME280;67396;42.664;23.382;2024-01-10T03:48:41;95999.78;;;-4.05;69.20
78149;BME280;67396;42.664;23.382;2024-01-10T03:51:14;96001.63;;;-3.96;69.66
78149;BME280;67396;42.664;23.382;2024-01-10T03:53:40;96004.34;;;-4.06;69.54
78149;BME280;67396;42.664;23.382;2024-01-10T03:56:06;96010.72;;;-4.32;70.86
78149;BME280;67396;42.664;23.382;2024-01-10T03:58:31;96002.16;;;-4.24;70.71
78149;BME280;67396;42.664;23.382;2024-01-10T04:00:57;96006.47;;;-4.18;69.75
78149;BME280;67396;42.664;23.382;2024-01-10T04:03:23;96015.31;;;-4.23;69.82
78149;BME280;67396;42.664;23.382;2024-01-10T04:05:48;96014.75;;;-4.30;70.61
78149;BME280;67396;42.664;23.382;2024-01-10T04:08:14;96012.06;;;-4.30;70.45
78149;BME280;67396;42.664;23.382;2024-01-10T04:10:39;96016.09;;;-4.12;69.54
78149;BME280;67396;42.664;23.382;2024-01-10T04:13:05;96020.69;;;-4.02;68.52
78149;BME280;67396;42.664;23.382;2024-01-10T04:15:30;96021.19;;;-4.26;69.42
78149;BME280;67396;42.664;23.382;2024-01-10T04:17:56;96017.69;;;-4.36;69.73
78149;BME280;67396;42.664;23.382;2024-01-10T04:20:21;96016.88;;;-4.37;69.95
78149;BME280;67396;42.664;23.382;2024-01-10T04:22:47;96024.38;;;-4.49;70.36
78149;BME280;67396;42.664;23.382;2024-01-10T04:25:12;96031.81;;;-4.56;70.23
78149;BME280;67396;42.664;23.382;2024-01-10T04:27:38;96031.22;;;-4.78;70.37
78149;BME280;67396;42.664;23.382;2024-01-10T04:30:04;96031.09;;;-5.04;70.52
78149;BME280;67396;42.664;23.382;2024-01-10T04:32:30;96031.78;;;-5.23;72.80
78149;BME280;67396;42.664;23.382;2024-01-10T04:34:56;96041.63;;;-5.34;72.76
78149;BME280;67396;42.664;23.382;2024-01-10T04:37:21;96035.69;;;-5.41;72.61
78149;BME280;67396;42.664;23.382;2024-01-10T04:39:47;96039.66;;;-5.49;72.62
78149;BME280;67396;42.664;23.382;2024-01-10T04:42:12;96046.56;;;-5.53;72.61
78149;BME280;67396;42.664;23.382;2024-01-10T04:44:38;96051.91;;;-5.58;73.10
78149;BME280;67396;42.664;23.382;2024-01-10T04:47:04;96051.91;;;-5.58;71.83
78149;BME280;67396;42.664;23.382;2024-01-10T04:49:29;96050.06;;;-5.52;71.63
78149;BME280;67396;42.664;23.382;2024-01-10T04:51:55;96053.88;;;-5.43;71.21
78149;BME280;67396;42.664;23.382;2024-01-10T04:54:21;96054.59;;;-5.53;70.53
78149;BME280;67396;42.664;23.382;2024-01-10T04:56:46;96058.56;;;-5.60;70.98
78149;BME280;67396;42.664;23.382;2024-01-10T04:59:12;96063.09;;;-5.61;72.02
78149;BME280;67396;42.664;23.382;2024-01-10T05:01:38;96058.56;;;-5.60;72.42
78149;BME280;67396;42.664;23.382;2024-01-10T05:04:03;96059.59;;;-5.61;72.57
78149;BME280;67396;42.664;23.382;2024-01-10T05:06:29;96051.59;;;-5.61;71.57
78149;BME280;67396;42.664;23.382;2024-01-10T05:08:54;96052.16;;;-5.59;72.16
78149;BME280;67396;42.664;23.382;2024-01-10T05:11:24;96055.72;;;-5.49;72.43
78149;BME280;67396;42.664;23.382;2024-01-10T05:13:53;96053.78;;;-5.53;72.35
78149;BME280;67396;42.664;23.382;2024-01-10T05:16:18;96052.97;;;-5.54;72.44
78149;BME280;67396;42.664;23.382;2024-01-10T05:18:44;96050.13;;;-5.42;73.06
78149;BME280;67396;42.664;23.382;2024-01-10T05:21:09;96058.16;;;-5.42;72.00
78149;BME280;67396;42.664;23.382;2024-01-10T05:23:35;96067.78;;;-5.41;71.54
78149;BME280;67396;42.664;23.382;2024-01-10T05:26:02;96073.38;;;-5.48;71.56
78149;BME280;67396;42.664;23.382;2024-01-10T05:28:27;96065.59;;;-5.49;71.29
78149;BME280;67396;42.664;23.382;2024-01-10T05:30:53;96063.97;;;-5.50;72.22
78149;BME280;67396;42.664;23.382;2024-01-10T05:33:19;96067.72;;;-5.51;71.39
78149;BME280;67396;42.664;23.382;2024-01-10T05:35:45;96076.53;;;-5.56;71.40
78149;BME280;67396;42.664;23.382;2024-01-10T05:38:10;96068.75;;;-5.57;72.32
78149;BME280;67396;42.664;23.382;2024-01-10T05:40:36;96073.28;;;-5.58;71.68
78149;BME280;67396;42.664;23.382;2024-01-10T05:43:01;96080.47;;;-5.63;72.79
78149;BME280;67396;42.664;23.382;2024-01-10T05:45:27;96084.22;;;-5.64;71.07
78149;BME280;67396;42.664;23.382;2024-01-10T05:47:54;96075.41;;;-5.60;71.29
78149;BME280;67396;42.664;23.382;2024-01-10T05:50:20;96076.28;;;-5.54;71.28
78149;BME280;67396;42.664;23.382;2024-01-10T05:52:46;96085.28;;;-5.28;77.14
78149;BME280;67396;42.664;23.382;2024-01-10T05:55:11;96080.44;;;-5.32;71.19
78149;BME280;67396;42.664;23.382;2024-01-10T05:57:37;96079.59;;;-5.37;71.45
78149;BME280;67396;42.664;23.382;2024-01-10T06:00:03;96081.16;;;-5.46;70.87
78149;BME280;67396;42.664;23.382;2024-01-10T06:02:38;96099.81;;;-5.51;71.25
78149;BME280;67396;42.664;23.382;2024-01-10T06:05:13;96081.63;;;-5.54;72.49
78149;BME280;67396;42.664;23.382;2024-01-10T06:07:39;96081.19;;;-5.36;75.52
78149;BME280;67396;42.664;23.382;2024-01-10T06:10:08;96098.94;;;-5.25;71.02
78149;BME280;67396;42.664;23.382;2024-01-10T06:12:33;96091.91;;;-5.36;71.31
78149;BME280;67396;42.664;23.382;2024-01-10T06:14:59;96091.44;;;-5.28;70.81
78149;BME280;67396;42.664;23.382;2024-01-10T06:17:24;96101.59;;;-5.30;70.89
78149;BME280;67396;42.664;23.382;2024-01-10T06:19:50;96099.47;;;-5.28;70.13
78149;BME280;67396;42.664;23.382;2024-01-10T06:22:16;96104.81;;;-5.28;70.41
78149;BME280;67396;42.664;23.382;2024-01-10T06:24:42;96102.66;;;-5.31;69.32
78149;BME280;67396;42.664;23.382;2024-01-10T06:27:08;96098.34;;;-5.37;70.06
78149;BME280;67396;42.664;23.382;2024-01-10T06:29:35;96118.56;;;-5.14;71.19
78149;BME280;67396;42.664;23.382;2024-01-10T06:32:02;96107.41;;;-4.44;88.41
78149;BME280;67396;42.664;23.382;2024-01-10T06:34:27;96110.03;;;-4.59;68.90
78149;BME280;67396;42.664;23.382;2024-01-10T06:36:53;96111.59;;;-4.68;68.72
78149;BME280;67396;42.664;23.382;2024-01-10T06:39:19;96121.72;;;-4.80;66.38
78149;BME280;67396;42.664;23.382;2024-01-10T06:41:48;96126.00;;;-4.74;67.64
78149;BME280;67396;42.664;23.382;2024-01-10T06:44:14;96119.16;;;-4.55;65.44
78149;BME280;67396;42.664;23.382;2024-01-10T06:46:39;96128.31;;;-4.46;64.46
78149;BME280;67396;42.664;23.382;2024-01-10T06:49:06;96127.75;;;-4.53;63.74
78149;BME280;67396;42.664;23.382;2024-01-10T06:51:32;96129.28;;;-4.67;62.97
78149;BME280;67396;42.664;23.382;2024-01-10T06:53:58;96124.94;;;-4.78;62.79
78149;BME280;67396;42.664;23.382;2024-01-10T06:56:29;96138.25;;;-4.88;63.17
78149;BME280;67396;42.664;23.382;2024-01-10T06:58:55;96135.72;;;-4.68;62.42
78149;BME280;67396;42.664;23.382;2024-01-10T07:01:20;96144.81;;;-4.64;62.53
78149;BME280;67396;42.664;23.382;2024-01-10T07:03:47;96147.50;;;-4.64;61.97
78149;BME280;67396;42.664;23.382;2024-01-10T07:06:13;96132.53;;;-4.60;61.79
78149;BME280;67396;42.664;23.382;2024-01-10T07:08:41;96140.00;;;-4.05;60.82
78149;BME280;67396;42.664;23.382;2024-01-10T07:11:10;96137.16;;;-3.53;59.23
78149;BME280;67396;42.664;23.382;2024-01-10T07:13:40;96132.31;;;-3.05;56.79
78149;BME280;67396;42.664;23.382;2024-01-10T07:16:06;96140.03;;;-2.58;54.70
78149;BME280;67396;42.664;23.382;2024-01-10T07:18:32;96145.03;;;-2.21;54.42
78149;BME280;67396;42.664;23.382;2024-01-10T07:20:57;96145.00;;;-1.62;52.91
78149;BME280;67396;42.664;23.382;2024-01-10T07:23:23;96143.38;;;-1.19;51.59
78149;BME280;67396;42.664;23.382;2024-01-10T07:25:48;96146.06;;;-0.56;50.45
78149;BME280;67396;42.664;23.382;2024-01-10T07:28:15;96143.78;;;-0.72;48.19
78149;BME280;67396;42.664;23.382;2024-01-10T07:30:40;96153.56;;;-0.53;49.42
78149;BME280;67396;42.664;23.382;2024-01-10T07:33:07;96152.41;;;-0.18;46.90
78149;BME280;67396;42.664;23.382;2024-01-10T07:35:33;96146.97;;;0.06;46.34
78149;BME280;67396;42.664;23.382;2024-01-10T07:37:58;96160.31;;;0.59;46.71
78149;BME280;67396;42.664;23.382;2024-01-10T07:40:24;96152.41;;;0.81;45.39
78149;BME280;67396;42.664;23.382;2024-01-10T07:42:49;96149.19;;;0.98;44.63
78149;BME280;67396;42.664;23.382;2024-01-10T07:45:14;96154.56;;;1.49;44.45
78149;BME280;67396;42.664;23.382;2024-01-10T07:47:40;96161.28;;;1.65;42.47
78149;BME280;67396;42.664;23.382;2024-01-10T07:50:10;96161.72;;;2.00;43.08
78149;BME280;67396;42.664;23.382;2024-01-10T07:52:36;96160.00;;;2.31;41.51
78149;BME280;67396;42.664;23.382;2024-01-10T07:55:02;96161.44;;;2.29;42.03
78149;BME280;67396;42.664;23.382;2024-01-10T07:57:30;96166.63;;;2.11;40.74
78149;BME280;67396;42.664;23.382;2024-01-10T07:59:56;96164.91;;;1.74;41.61
78149;BME280;67396;42.664;23.382;2024-01-10T08:02:21;96161.53;;;1.82;40.47
78149;BME280;67396;42.664;23.382;2024-01-10T08:04:47;96158.38;;;1.48;40.85
78149;BME280;67396;42.664;23.382;2024-01-10T08:07:13;96159.16;;;1.16;41.98
78149;BME280;67396;42.664;23.382;2024-01-10T08:09:39;96163.97;;;0.68;42.78
78149;BME280;67396;42.664;23.382;2024-01-10T08:12:04;96156.13;;;0.29;44.63
78149;BME280;67396;42.664;23.382;2024-01-10T08:14:30;96172.84;;;-0.98;49.52
78149;BME280;67396;42.664;23.382;2024-01-10T08:16:55;96175.63;;;-2.07;49.01
78149;BME280;67396;42.664;23.382;2024-01-10T08:19:26;96178.69;;;-2.34;50.87
78149;BME280;67396;42.664;23.382;2024-01-10T08:21:53;96174.22;;;-2.94;52.81
78149;BME280;67396;42.664;23.382;2024-01-10T08:24:21;96177.44;;;-3.17;56.11
78149;BME280;67396;42.664;23.382;2024-01-10T08:26:47;96176.63;;;-2.87;55.23
78149;BME280;67396;42.664;23.382;2024-01-10T08:29:18;96178.78;;;-2.94;53.01
78149;BME280;67396;42.664;23.382;2024-01-10T08:31:45;96180.66;;;-3.20;53.42
78149;BME280;67396;42.664;23.382;2024-01-10T08:34:10;96180.13;;;-3.27;51.99
78149;BME280;67396;42.664;23.382;2024-01-10T08:36:35;96179.03;;;-3.36;51.72
78149;BME280;67396;42.664;23.382;2024-01-10T08:39:01;96176.34;;;-3.31;51.41
78149;BME280;67396;42.664;23.382;2024-01-10T08:41:28;96180.66;;;-3.15;50.12
78149;BME280;67396;42.664;23.382;2024-01-10T08:43:54;96183.63;;;-3.17;48.46
78149;BME280;67396;42.664;23.382;2024-01-10T08:46:19;96180.63;;;-3.25;48.53
78149;BME280;67396;42.664;23.382;2024-01-10T08:48:46;96187.38;;;-3.23;48.62
78149;BME280;67396;42.664;23.382;2024-01-10T08:51:13;96187.38;;;-3.28;48.13
78149;BME280;67396;42.664;23.382;2024-01-10T08:53:41;96179.81;;;-3.41;48.29
78149;BME280;67396;42.664;23.382;2024-01-10T08:56:07;96179.56;;;-3.29;48.73
78149;BME280;67396;42.664;23.382;2024-01-10T08:58:32;96177.69;;;-3.14;47.45
78149;BME280;67396;42.664;23.382;2024-01-10T09:00:58;96178.22;;;-3.07;47.59
78149;BME280;67396;42.664;23.382;2024-01-10T09:03:23;96180.13;;;-3.02;48.27
78149;BME280;67396;42.664;23.382;2024-01-10T09:05:49;96177.44;;;-2.97;48.48
78149;BME280;67396;42.664;23.382;2024-01-10T09:08:14;96179.59;;;-3.04;48.44
78149;BME280;67396;42.664;23.382;2024-01-10T09:10:41;96174.22;;;-3.09;48.69
78149;BME280;67396;42.664;23.382;2024-01-10T09:13:06;96176.09;;;-3.05;49.32
78149;BME280;67396;42.664;23.382;2024-01-10T09:15:32;96180.13;;;-2.92;48.36
78149;BME280;67396;42.664;23.382;2024-01-10T09:18:01;96173.66;;;-2.81;48.05
78149;BME280;67396;42.664;23.382;2024-01-10T09:20:26;96174.75;;;-2.87;48.45
78149;BME280;67396;42.664;23.382;2024-01-10T09:22:52;96177.72;;;-2.93;48.62
78149;BME280;67396;42.664;23.382;2024-01-10T09:25:18;96172.59;;;-2.95;49.36
78149;BME280;67396;42.664;23.382;2024-01-10T09:27:43;96174.50;;;-2.90;49.79
78149;BME280;67396;42.664;23.382;2024-01-10T09:30:10;96181.47;;;-2.84;50.37
78149;BME280;67396;42.664;23.382;2024-01-10T09:32:36;96167.22;;;-2.80;50.10
78149;BME280;67396;42.664;23.382;2024-01-10T09:35:02;96162.91;;;-2.76;49.61
78149;BME280;67396;42.664;23.382;2024-01-10T09:37:28;96169.66;;;-2.83;49.48
78149;BME280;67396;42.664;23.382;2024-01-10T09:39:53;96165.59;;;-2.76;50.01
78149;BME280;67396;42.664;23.382;2024-01-10T09:42:19;96164.53;;;-2.75;51.12
78149;BME280;67396;42.664;23.382;2024-01-10T09:44:50;96155.09;;;-2.67;49.53
78149;BME280;67396;42.664;23.382;2024-01-10T09:47:16;96165.03;;;-2.62;50.39
78149;BME280;67396;42.664;23.382;2024-01-10T09:49:43;96159.66;;;-2.57;50.33
78149;BME280;67396;42.664;23.382;2024-01-10T09:52:16;96160.72;;;-2.53;50.52
78149;BME280;67396;42.664;23.382;2024-01-10T09:54:46;96160.47;;;-2.62;52.04
78149;BME280;67396;42.664;23.382;2024-01-10T09:57:13;96153.25;;;-2.82;52.19
78149;BME280;67396;42.664;23.382;2024-01-10T09:59:38;96158.63;;;-2.82;52.40
78149;BME280;67396;42.664;23.382;2024-01-10T10:02:04;96151.59;;;-2.73;52.58
78149;BME280;67396;42.664;23.382;2024-01-10T10:04:30;96145.97;;;-2.56;52.10
78149;BME280;67396;42.664;23.382;2024-01-10T10:06:59;96144.06;;;-2.50;52.88
78149;BME280;67396;42.664;23.382;2024-01-10T10:09:26;96143.03;;;-2.64;53.46
78149;BME280;67396;42.664;23.382;2024-01-10T10:11:55;96138.41;;;-2.54;53.02
78149;BME280;67396;42.664;23.382;2024-01-10T10:14:20;96131.69;;;-2.46;53.36
78149;BME280;67396;42.664;23.382;2024-01-10T10:16:46;96124.66;;;-2.42;51.64
78149;BME280;67396;42.664;23.382;2024-01-10T10:19:11;96126.22;;;-2.21;50.81
78149;BME280;67396;42.664;23.382;2024-01-10T10:21:38;96123.19;;;-2.09;50.59
78149;BME280;67396;42.664;23.382;2024-01-10T10:24:04;96118.06;;;-2.06;50.09
78149;BME280;67396;42.664;23.382;2024-01-10T10:26:32;96118.56;;;-1.99;49.84
78149;BME280;67396;42.664;23.382;2024-01-10T10:28:58;96116.16;;;-1.95;49.74
78149;BME280;67396;42.664;23.382;2024-01-10T10:31:24;96115.53;;;-1.82;48.92
78149;BME280;67396;42.664;23.382;2024-01-10T10:33:51;96105.66;;;-1.97;49.89
78149;BME280;67396;42.664;23.382;2024-01-10T10:36:17;96102.97;;;-1.97;50.79
78149;BME280;67396;42.664;23.382;2024-01-10T10:38:43;96102.16;;;-1.97;50.20
78149;BME280;67396;42.664;23.382;2024-01-10T10:41:08;96097.00;;;-1.88;50.45
78149;BME280;67396;42.664;23.382;2024-01-10T10:43:37;96103.56;;;-2.10;50.45
78149;BME280;67396;42.664;23.382;2024-01-10T10:46:05;96098.97;;;-2.04;50.55
78149;BME280;67396;42.664;23.382;2024-01-10T10:48:34;96089.84;;;-2.08;51.41
78149;BME280;67396;42.664;23.382;2024-01-10T10:51:04;96089.53;;;-2.02;50.87
78149;BME280;67396;42.664;23.382;2024-01-10T10:53:34;96083.06;;;-2.01;50.82
78149;BME280;67396;42.664;23.382;2024-01-10T10:56:05;96079.25;;;-1.90;51.17
78149;BME280;67396;42.664;23.382;2024-01-10T10:58:38;96073.53;;;-1.78;50.78
78149;BME280;67396;42.664;23.382;2024-01-10T11:01:05;96069.22;;;-1.79;50.92
78149;BME280;67396;42.664;23.382;2024-01-10T11:03:34;96064.72;;;-1.88;50.73
78149;BME280;67396;42.664;23.382;2024-01-10T11:06:01;96058.34;;;-2.03;51.72
78149;BME280;67396;42.664;23.382;2024-01-10T11:08:28;96057.28;;;-2.07;52.83
78149;BME280;67396;42.664;23.382;2024-01-10T11:10:55;96061.75;;;-1.92;52.36
78149;BME280;67396;42.664;23.382;2024-01-10T11:24:40;96043.31;;;-1.70;52.30
78149;BME280;67396;42.664;23.382;2024-01-10T11:27:14;96040.25;;;-1.58;52.01
78149;BME280;67396;42.664;23.382;2024-01-10T11:29:41;96028.38;;;-1.52;52.00
78149;BME280;67396;42.664;23.382;2024-01-10T11:32:14;96031.31;;;-1.48;52.04
78149;BME280;67396;42.664;23.382;2024-01-10T11:37:19;96027.47;;;-1.71;51.99
78149;BME280;67396;42.664;23.382;2024-01-10T11:39:44;96029.19;;;-1.91;52.09
78149;BME280;67396;42.664;23.382;2024-01-10T11:42:10;96019.31;;;-2.00;52.53
78149;BME280;67396;42.664;23.382;2024-01-10T11:44:47;96019.53;;;-1.92;53.34
78149;BME280;67396;42.664;23.382;2024-01-10T11:47:15;96025.38;;;-1.84;53.35
78149;BME280;67396;42.664;23.382;2024-01-10T11:49:40;96013.47;;;-1.73;52.92
78149;BME280;67396;42.664;23.382;2024-01-10T11:52:05;96007.22;;;-1.64;52.75
78149;BME280;67396;42.664;23.382;2024-01-10T11:54:44;96010.75;;;-1.68;52.68
78149;BME280;67396;42.664;23.382;2024-01-10T11:57:11;96001.81;;;-1.64;53.02
78149;BME280;67396;42.664;23.382;2024-01-10T11:59:38;96002.56;;;-1.58;52.47
78149;BME280;67396;42.664;23.382;2024-01-10T12:02:03;96003.69;;;-1.59;53.20
78149;BME280;67396;42.664;23.382;2024-01-10T12:04:31;95989.53;;;-1.41;56.44
78149;BME280;67396;42.664;23.382;2024-01-10T12:06:57;95992.69;;;-1.34;55.83
78149;BME280;67396;42.664;23.382;2024-01-10T12:09:23;95992.78;;;-1.44;54.68
78149;BME280;67396;42.664;23.382;2024-01-10T12:11:50;95981.22;;;-1.49;55.44
78149;BME280;67396;42.664;23.382;2024-01-10T12:14:15;95979.03;;;-1.42;55.14
78149;BME280;67396;42.664;23.382;2024-01-10T12:16:40;95985.50;;;-1.43;55.56
78149;BME280;67396;42.664;23.382;2024-01-10T12:19:06;95977.03;;;-1.32;55.55
78149;BME280;67396;42.664;23.382;2024-01-10T12:21:31;95972.13;;;-1.25;55.66
78149;BME280;67396;42.664;23.382;2024-01-10T12:23:57;95974.22;;;-1.22;55.81
78149;BME280;67396;42.664;23.382;2024-01-10T12:26:22;95965.84;;;-1.15;55.44
78149;BME280;67396;42.664;23.382;2024-01-10T12:28:58;95966.41;;;-1.18;55.69
78149;BME280;67396;42.664;23.382;2024-01-10T12:31:24;95973.94;;;-1.20;55.88
78149;BME280;67396;42.664;23.382;2024-01-10T12:33:52;95983.63;;;-1.19;56.18
78149;BME280;67396;42.664;23.382;2024-01-10T12:36:18;95970.44;;;-1.21;56.35
78149;BME280;67396;42.664;23.382;2024-01-10T12:38:45;95971.78;;;-1.18;56.46
78149;BME280;67396;42.664;23.382;2024-01-10T12:41:10;95981.19;;;-1.16;56.87
78149;BME280;67396;42.664;23.382;2024-01-10T12:43:36;95973.94;;;-1.20;57.61
78149;BME280;67396;42.664;23.382;2024-01-10T12:48:28;95968.56;;;-1.20;57.77
78149;BME280;67396;42.664;23.382;2024-01-10T12:50:54;95969.16;;;-1.23;58.09
78149;BME280;67396;42.664;23.382;2024-01-10T12:53:19;95972.88;;;-1.19;57.51
78149;BME280;67396;42.664;23.382;2024-01-10T12:55:46;95982.66;;;-1.28;57.97
78149;BME280;67396;42.664;23.382;2024-01-10T12:58:11;95988.00;;;-1.23;57.80
78149;BME280;67396;42.664;23.382;2024-01-10T13:00:36;95973.59;;;-1.14;57.40
78149;BME280;67396;42.664;23.382;2024-01-10T13:03:02;95979.00;;;-1.14;57.85